sensor_id;sensor_type;location;lat;lon;timestamp;P1;durP1;ratioP1;P2;durP2;ratioP2
3939;SDS011;1984;48.312;9.244;2023-12-29T00:01:51;12.13;;;5.60;;
3939;SDS011;1984;48.312;9.244;2023-12-29T00:04:16;5.70;;;4.50;;
3939;SDS011;1984;48.312;9.244;2023-12-29T00:06:42;4.43;;;4.03;;
3939;SDS011;1984;48.312;9.244;2023-12-29T00:09:08;4.30;;;3.90;;
3939;SDS011;1984;48.312;9.244;2023-12-29T00:11:33;6.07;;;4.37;;
3939;SDS011;1984;48.312;9.244;2023-12-29T00:13:59;11.60;;;4.57;;
3939;SDS011;1984;48.312;9.244;2023-12-29T00:16:24;6.83;;;4.10;;
3939;SDS011;1984;48.312;9.244;2023-12-29T00:18:52;5.83;;;3.57;;
3939;SDS011;1984;48.312;9.244;2023-12-29T00:21:17;6.63;;;4.20;;
3939;SDS011;1984;48.312;9.244;2023-12-29T00:23:43;3.80;;;3.47;;
3939;SDS011;1984;48.312;9.244;2023-12-29T00:26:08;7.27;;;4.57;;
3939;SDS011;1984;48.312;9.244;2023-12-29T00:28:34;7.63;;;4.10;;
3939;SDS011;1984;48.312;9.244;2023-12-29T00:31:01;6.40;;;3.90;;
3939;SDS011;1984;48.312;9.244;2023-12-29T00:33:27;4.83;;;4.33;;
3939;SDS011;1984;48.312;9.244;2023-12-29T00:35:52;4.57;;;4.17;;
3939;SDS011;1984;48.312;9.244;2023-12-29T00:38:18;6.30;;;4.10;;
3939;SDS011;1984;48.312;9.244;2023-12-29T00:40:43;4.27;;;3.70;;
3939;SDS011;1984;48.312;9.244;2023-12-29T00:43:09;3.50;;;3.20;;
3939;SDS011;1984;48.312;9.244;2023-12-29T00:45:34;3.90;;;3.60;;
3939;SDS011;1984;48.312;9.244;2023-12-29T00:48:01;4.03;;;3.63;;
3939;SDS011;1984;48.312;9.244;2023-12-29T00:50:27;4.60;;;3.43;;
3939;SDS011;1984;48.312;9.244;2023-12-29T00:52:53;3.90;;;3.60;;
3939;SDS011;1984;48.312;9.244;2023-12-29T00:55:19;5.40;;;4.30;;
3939;SDS011;1984;48.312;9.244;2023-12-29T00:57:44;4.57;;;4.10;;
3939;SDS011;1984;48.312;9.244;2023-12-29T01:00:10;5.50;;;4.00;;
3939;SDS011;1984;48.312;9.244;2023-12-29T01:02:37;5.47;;;4.10;;
3939;SDS011;1984;48.312;9.244;2023-12-29T01:05:03;4.93;;;4.03;;
3939;SDS011;1984;48.312;9.244;2023-12-29T01:07:29;6.90;;;4.07;;
3939;SDS011;1984;48.312;9.244;2023-12-29T01:09:55;5.20;;;4.30;;
3939;SDS011;1984;48.312;9.244;2023-12-29T01:12:20;5.60;;;4.20;;
3939;SDS011;1984;48.312;9.244;2023-12-29T01:14:46;5.70;;;4.80;;
3939;SDS011;1984;48.312;9.244;2023-12-29T01:17:11;6.67;;;5.30;;
3939;SDS011;1984;48.312;9.244;2023-12-29T01:19:37;6.53;;;4.70;;
3939;SDS011;1984;48.312;9.244;2023-12-29T01:22:02;6.10;;;4.80;;
3939;SDS011;1984;48.312;9.244;2023-12-29T01:24:28;6.27;;;5.40;;
3939;SDS011;1984;48.312;9.244;2023-12-29T01:26:53;6.50;;;4.40;;
3939;SDS011;1984;48.312;9.244;2023-12-29T01:29:19;5.03;;;4.40;;
3939;SDS011;1984;48.312;9.244;2023-12-29T01:31:44;5.97;;;4.40;;
3939;SDS011;1984;48.312;9.244;2023-12-29T01:34:10;6.03;;;4.43;;
3939;SDS011;1984;48.312;9.244;2023-12-29T01:36:35;7.03;;;5.00;;
3939;SDS011;1984;48.312;9.244;2023-12-29T01:39:01;5.37;;;4.33;;
3939;SDS011;1984;48.312;9.244;2023-12-29T01:41:28;7.07;;;5.27;;
3939;SDS011;1984;48.312;9.244;2023-12-29T01:46:25;8.80;;;5.60;;
3939;SDS011;1984;48.312;9.244;2023-12-29T01:48:56;20.77;;;6.93;;
3939;SDS011;1984;48.312;9.244;2023-12-29T01:51:23;15.60;;;6.10;;
3939;SDS011;1984;48.312;9.244;2023-12-29T01:53:54;13.17;;;6.97;;
3939;SDS011;1984;48.312;9.244;2023-12-29T01:56:21;14.70;;;7.70;;
3939;SDS011;1984;48.312;9.244;2023-12-29T01:58:50;14.07;;;7.20;;
3939;SDS011;1984;48.312;9.244;2023-12-29T02:01:17;11.37;;;6.13;;
3939;SDS011;1984;48.312;9.244;2023-12-29T02:03:44;12.17;;;6.13;;
3939;SDS011;1984;48.312;9.244;2023-12-29T02:06:10;10.43;;;6.73;;
3939;SDS011;1984;48.312;9.244;2023-12-29T02:08:36;10.70;;;6.57;;
3939;SDS011;1984;48.312;9.244;2023-12-29T02:11:02;9.40;;;6.00;;
3939;SDS011;1984;48.312;9.244;2023-12-29T02:13:29;10.57;;;6.53;;
3939;SDS011;1984;48.312;9.244;2023-12-29T02:15:54;10.33;;;5.57;;
3939;SDS011;1984;48.312;9.244;2023-12-29T02:18:28;7.37;;;5.20;;
3939;SDS011;1984;48.312;9.244;2023-12-29T02:20:58;8.30;;;5.27;;
3939;SDS011;1984;48.312;9.244;2023-12-29T02:23:23;5.43;;;4.80;;
3939;SDS011;1984;48.312;9.244;2023-12-29T02:25:49;5.00;;;4.50;;
3939;SDS011;1984;48.312;9.244;2023-12-29T02:28:23;5.87;;;4.70;;
3939;SDS011;1984;48.312;9.244;2023-12-29T02:30:53;6.07;;;4.63;;
3939;SDS011;1984;48.312;9.244;2023-12-29T02:33:31;6.63;;;4.73;;
3939;SDS011;1984;48.312;9.244;2023-12-29T02:36:02;7.30;;;4.17;;
3939;SDS011;1984;48.312;9.244;2023-12-29T02:38:30;6.00;;;4.33;;
3939;SDS011;1984;48.312;9.244;2023-12-29T02:40:56;5.80;;;4.70;;
3939;SDS011;1984;48.312;9.244;2023-12-29T02:43:22;4.60;;;4.10;;
3939;SDS011;1984;48.312;9.244;2023-12-29T02:45:47;5.27;;;4.43;;
3939;SDS011;1984;48.312;9.244;2023-12-29T02:48:13;7.07;;;4.47;;
3939;SDS011;1984;48.312;9.244;2023-12-29T02:50:38;5.70;;;4.57;;
3939;SDS011;1984;48.312;9.244;2023-12-29T02:53:04;8.33;;;5.60;;
3939;SDS011;1984;48.312;9.244;2023-12-29T02:55:30;7.57;;;5.13;;
3939;SDS011;1984;48.312;9.244;2023-12-29T02:57:55;8.13;;;4.43;;
3939;SDS011;1984;48.312;9.244;2023-12-29T03:00:21;6.27;;;4.57;;
3939;SDS011;1984;48.312;9.244;2023-12-29T03:02:46;4.93;;;3.83;;
3939;SDS011;1984;48.312;9.244;2023-12-29T03:05:12;5.97;;;4.53;;
3939;SDS011;1984;48.312;9.244;2023-12-29T03:07:38;5.47;;;4.30;;
3939;SDS011;1984;48.312;9.244;2023-12-29T03:10:05;4.10;;;3.70;;
3939;SDS011;1984;48.312;9.244;2023-12-29T03:12:32;5.33;;;4.17;;
3939;SDS011;1984;48.312;9.244;2023-12-29T03:14:57;8.60;;;4.40;;
3939;SDS011;1984;48.312;9.244;2023-12-29T03:17:23;3.37;;;3.07;;
3939;SDS011;1984;48.312;9.244;2023-12-29T03:19:48;4.87;;;3.97;;
3939;SDS011;1984;48.312;9.244;2023-12-29T03:22:14;5.60;;;2.30;;
3939;SDS011;1984;48.312;9.244;2023-12-29T03:24:40;1.70;;;1.60;;
3939;SDS011;1984;48.312;9.244;2023-12-29T03:27:06;2.77;;;2.30;;
3939;SDS011;1984;48.312;9.244;2023-12-29T03:29:31;2.07;;;1.93;;
3939;SDS011;1984;48.312;9.244;2023-12-29T03:31:57;2.13;;;1.97;;
3939;SDS011;1984;48.312;9.244;2023-12-29T03:34:22;1.80;;;1.70;;
3939;SDS011;1984;48.312;9.244;2023-12-29T03:36:48;1.60;;;1.50;;
3939;SDS011;1984;48.312;9.244;2023-12-29T03:39:13;1.80;;;1.70;;
3939;SDS011;1984;48.312;9.244;2023-12-29T03:41:39;1.80;;;1.70;;
3939;SDS011;1984;48.312;9.244;2023-12-29T03:44:04;1.90;;;1.80;;
3939;SDS011;1984;48.312;9.244;2023-12-29T03:46:31;1.80;;;1.60;;
3939;SDS011;1984;48.312;9.244;2023-12-29T03:48:57;1.80;;;1.70;;
3939;SDS011;1984;48.312;9.244;2023-12-29T03:51:23;2.67;;;1.90;;
3939;SDS011;1984;48.312;9.244;2023-12-29T03:53:49;4.13;;;1.90;;
3939;SDS011;1984;48.312;9.244;2023-12-29T03:56:15;1.80;;;1.70;;
3939;SDS011;1984;48.312;9.244;2023-12-29T03:58:41;1.63;;;1.53;;
3939;SDS011;1984;48.312;9.244;2023-12-29T04:01:11;1.93;;;1.83;;
3939;SDS011;1984;48.312;9.244;2023-12-29T04:03:37;1.70;;;1.60;;
3939;SDS011;1984;48.312;9.244;2023-12-29T04:06:03;1.70;;;1.60;;
3939;SDS011;1984;48.312;9.244;2023-12-29T04:08:29;1.60;;;1.50;;
3939;SDS011;1984;48.312;9.244;2023-12-29T04:10:54;1.73;;;1.63;;
3939;SDS011;1984;48.312;9.244;2023-12-29T04:13:20;2.30;;;2.00;;
3939;SDS011;1984;48.312;9.244;2023-12-29T04:15:45;4.30;;;1.90;;
3939;SDS011;1984;48.312;9.244;2023-12-29T04:18:11;1.50;;;1.40;;
3939;SDS011;1984;48.312;9.244;2023-12-29T04:20:36;2.00;;;1.70;;
3939;SDS011;1984;48.312;9.244;2023-12-29T04:23:02;1.80;;;1.70;;
3939;SDS011;1984;48.312;9.244;2023-12-29T04:25:28;2.73;;;1.73;;
3939;SDS011;1984;48.312;9.244;2023-12-29T04:27:54;2.23;;;2.13;;
3939;SDS011;1984;48.312;9.244;2023-12-29T04:30:19;3.13;;;1.90;;
3939;SDS011;1984;48.312;9.244;2023-12-29T04:32:45;1.60;;;1.50;;
3939;SDS011;1984;48.312;9.244;2023-12-29T04:35:10;1.50;;;1.40;;
3939;SDS011;1984;48.312;9.244;2023-12-29T04:37:37;1.53;;;1.43;;
3939;SDS011;1984;48.312;9.244;2023-12-29T04:40:03;2.00;;;1.70;;
3939;SDS011;1984;48.312;9.244;2023-12-29T04:42:30;1.70;;;1.57;;
3939;SDS011;1984;48.312;9.244;2023-12-29T04:44:55;1.60;;;1.50;;
3939;SDS011;1984;48.312;9.244;2023-12-29T04:47:21;2.00;;;1.90;;
3939;SDS011;1984;48.312;9.244;2023-12-29T04:49:46;1.93;;;1.50;;
3939;SDS011;1984;48.312;9.244;2023-12-29T04:52:12;3.03;;;1.70;;
3939;SDS011;1984;48.312;9.244;2023-12-29T04:54:38;1.73;;;1.50;;
3939;SDS011;1984;48.312;9.244;2023-12-29T04:57:03;2.67;;;1.97;;
3939;SDS011;1984;48.312;9.244;2023-12-29T04:59:29;2.10;;;1.50;;
3939;SDS011;1984;48.312;9.244;2023-12-29T05:01:55;1.47;;;1.37;;
3939;SDS011;1984;48.312;9.244;2023-12-29T05:04:20;3.03;;;1.23;;
3939;SDS011;1984;48.312;9.244;2023-12-29T05:06:46;2.53;;;1.60;;
3939;SDS011;1984;48.312;9.244;2023-12-29T05:09:11;3.27;;;1.60;;
3939;SDS011;1984;48.312;9.244;2023-12-29T05:11:37;1.70;;;1.60;;
3939;SDS011;1984;48.312;9.244;2023-12-29T05:14:02;1.80;;;1.50;;
3939;SDS011;1984;48.312;9.244;2023-12-29T05:16:28;1.70;;;1.60;;
3939;SDS011;1984;48.312;9.244;2023-12-29T05:18:53;1.83;;;1.73;;
3939;SDS011;1984;48.312;9.244;2023-12-29T05:21:19;1.43;;;1.40;;
3939;SDS011;1984;48.312;9.244;2023-12-29T05:23:45;3.93;;;2.30;;
3939;SDS011;1984;48.312;9.244;2023-12-29T05:26:12;2.17;;;1.97;;
3939;SDS011;1984;48.312;9.244;2023-12-29T05:28:39;1.93;;;1.83;;
3939;SDS011;1984;48.312;9.244;2023-12-29T05:31:04;1.87;;;1.77;;
3939;SDS011;1984;48.312;9.244;2023-12-29T05:33:30;2.43;;;2.23;;
3939;SDS011;1984;48.312;9.244;2023-12-29T05:35:56;2.40;;;2.20;;
3939;SDS011;1984;48.312;9.244;2023-12-29T05:38:22;2.27;;;2.07;;
3939;SDS011;1984;48.312;9.244;2023-12-29T05:40:47;2.40;;;2.20;;
3939;SDS011;1984;48.312;9.244;2023-12-29T05:43:13;2.27;;;2.17;;
3939;SDS011;1984;48.312;9.244;2023-12-29T05:45:39;3.30;;;2.30;;
3939;SDS011;1984;48.312;9.244;2023-12-29T05:48:05;2.80;;;2.30;;
3939;SDS011;1984;48.312;9.244;2023-12-29T05:50:31;2.60;;;2.37;;
3939;SDS011;1984;48.312;9.244;2023-12-29T05:52:57;3.97;;;2.43;;
3939;SDS011;1984;48.312;9.244;2023-12-29T05:55:22;3.37;;;2.33;;
3939;SDS011;1984;48.312;9.244;2023-12-29T05:57:48;3.20;;;2.37;;
3939;SDS011;1984;48.312;9.244;2023-12-29T06:00:14;2.70;;;2.50;;
3939;SDS011;1984;48.312;9.244;2023-12-29T06:02:40;2.33;;;2.13;;
3939;SDS011;1984;48.312;9.244;2023-12-29T06:05:07;2.63;;;2.43;;
3939;SDS011;1984;48.312;9.244;2023-12-29T06:07:33;2.43;;;2.23;;
3939;SDS011;1984;48.312;9.244;2023-12-29T06:09:59;3.00;;;2.37;;
3939;SDS011;1984;48.312;9.244;2023-12-29T06:12:24;2.87;;;2.37;;
3939;SDS011;1984;48.312;9.244;2023-12-29T06:14:50;3.27;;;2.97;;
3939;SDS011;1984;48.312;9.244;2023-12-29T06:17:15;2.90;;;2.57;;
3939;SDS011;1984;48.312;9.244;2023-12-29T06:19:41;2.30;;;2.20;;
3939;SDS011;1984;48.312;9.244;2023-12-29T06:22:06;2.93;;;2.27;;
3939;SDS011;1984;48.312;9.244;2023-12-29T06:24:36;3.67;;;3.13;;
3939;SDS011;1984;48.312;9.244;2023-12-29T06:27:02;3.93;;;2.83;;
3939;SDS011;1984;48.312;9.244;2023-12-29T06:29:28;2.43;;;2.23;;
3939;SDS011;1984;48.312;9.244;2023-12-29T06:31:53;2.43;;;2.23;;
3939;SDS011;1984;48.312;9.244;2023-12-29T06:34:19;2.30;;;2.20;;
3939;SDS011;1984;48.312;9.244;2023-12-29T06:36:44;4.17;;;2.97;;
3939;SDS011;1984;48.312;9.244;2023-12-29T06:39:10;3.10;;;2.70;;
3939;SDS011;1984;48.312;9.244;2023-12-29T06:41:35;3.90;;;2.97;;
3939;SDS011;1984;48.312;9.244;2023-12-29T06:44:01;2.90;;;2.70;;
3939;SDS011;1984;48.312;9.244;2023-12-29T06:46:26;4.17;;;3.30;;
3939;SDS011;1984;48.312;9.244;2023-12-29T06:48:52;2.67;;;2.47;;
3939;SDS011;1984;48.312;9.244;2023-12-29T06:51:17;2.80;;;2.47;;
3939;SDS011;1984;48.312;9.244;2023-12-29T06:53:44;3.13;;;2.17;;
3939;SDS011;1984;48.312;9.244;2023-12-29T06:56:16;2.63;;;2.43;;
3939;SDS011;1984;48.312;9.244;2023-12-29T06:58:43;3.07;;;2.80;;
3939;SDS011;1984;48.312;9.244;2023-12-29T07:01:08;2.13;;;2.03;;
3939;SDS011;1984;48.312;9.244;2023-12-29T07:03:34;2.60;;;2.40;;
3939;SDS011;1984;48.312;9.244;2023-12-29T07:06:00;2.80;;;2.10;;
3939;SDS011;1984;48.312;9.244;2023-12-29T07:08:26;3.07;;;2.77;;
3939;SDS011;1984;48.312;9.244;2023-12-29T07:10:52;2.87;;;2.57;;
3939;SDS011;1984;48.312;9.244;2023-12-29T07:13:18;2.77;;;2.57;;
3939;SDS011;1984;48.312;9.244;2023-12-29T07:15:44;4.10;;;3.20;;
3939;SDS011;1984;48.312;9.244;2023-12-29T07:18:10;4.97;;;2.60;;
3939;SDS011;1984;48.312;9.244;2023-12-29T07:20:36;4.30;;;2.53;;
3939;SDS011;1984;48.312;9.244;2023-12-29T07:23:01;4.87;;;2.80;;
3939;SDS011;1984;48.312;9.244;2023-12-29T07:25:27;4.50;;;2.70;;
3939;SDS011;1984;48.312;9.244;2023-12-29T07:27:52;2.67;;;2.47;;
3939;SDS011;1984;48.312;9.244;2023-12-29T07:30:18;4.37;;;3.97;;
3939;SDS011;1984;48.312;9.244;2023-12-29T07:32:44;3.93;;;3.63;;
3939;SDS011;1984;48.312;9.244;2023-12-29T07:35:09;6.40;;;4.00;;
3939;SDS011;1984;48.312;9.244;2023-12-29T07:37:35;3.60;;;3.30;;
3939;SDS011;1984;48.312;9.244;2023-12-29T07:40:00;5.10;;;4.43;;
3939;SDS011;1984;48.312;9.244;2023-12-29T07:42:26;5.47;;;4.63;;
3939;SDS011;1984;48.312;9.244;2023-12-29T07:44:51;6.90;;;4.00;;
3939;SDS011;1984;48.312;9.244;2023-12-29T07:47:17;8.20;;;5.40;;
3939;SDS011;1984;48.312;9.244;2023-12-29T07:49:43;7.97;;;5.40;;
3939;SDS011;1984;48.312;9.244;2023-12-29T07:52:08;5.17;;;4.17;;
3939;SDS011;1984;48.312;9.244;2023-12-29T07:54:34;7.30;;;5.40;;
3939;SDS011;1984;48.312;9.244;2023-12-29T07:56:59;5.57;;;4.27;;
3939;SDS011;1984;48.312;9.244;2023-12-29T07:59:25;6.40;;;4.63;;
3939;SDS011;1984;48.312;9.244;2023-12-29T08:01:51;4.50;;;4.10;;
3939;SDS011;1984;48.312;9.244;2023-12-29T08:04:17;6.67;;;5.23;;
3939;SDS011;1984;48.312;9.244;2023-12-29T08:06:42;6.37;;;4.77;;
3939;SDS011;1984;48.312;9.244;2023-12-29T08:09:08;4.70;;;4.00;;
3939;SDS011;1984;48.312;9.244;2023-12-29T08:11:34;4.50;;;4.10;;
3939;SDS011;1984;48.312;9.244;2023-12-29T08:14:00;5.30;;;4.73;;
3939;SDS011;1984;48.312;9.244;2023-12-29T08:16:26;8.40;;;5.43;;
3939;SDS011;1984;48.312;9.244;2023-12-29T08:18:51;4.60;;;4.20;;
3939;SDS011;1984;48.312;9.244;2023-12-29T08:21:18;6.70;;;5.30;;
3939;SDS011;1984;48.312;9.244;2023-12-29T08:23:45;11.33;;;6.10;;
3939;SDS011;1984;48.312;9.244;2023-12-29T08:26:11;5.07;;;4.57;;
3939;SDS011;1984;48.312;9.244;2023-12-29T08:28:37;4.37;;;3.97;;
3939;SDS011;1984;48.312;9.244;2023-12-29T08:31:02;4.50;;;4.10;;
3939;SDS011;1984;48.312;9.244;2023-12-29T08:33:28;4.47;;;4.07;;
3939;SDS011;1984;48.312;9.244;2023-12-29T08:35:54;10.70;;;4.60;;
3939;SDS011;1984;48.312;9.244;2023-12-29T08:38:25;4.30;;;3.90;;
3939;SDS011;1984;48.312;9.244;2023-12-29T08:40:53;7.53;;;4.53;;
3939;SDS011;1984;48.312;9.244;2023-12-29T08:43:19;5.17;;;4.67;;
3939;SDS011;1984;48.312;9.244;2023-12-29T08:45:47;6.07;;;4.50;;
3939;SDS011;1984;48.312;9.244;2023-12-29T08:48:12;5.37;;;4.27;;
3939;SDS011;1984;48.312;9.244;2023-12-29T08:50:38;6.70;;;4.50;;
3939;SDS011;1984;48.312;9.244;2023-12-29T08:53:04;4.40;;;4.00;;
3939;SDS011;1984;48.312;9.244;2023-12-29T08:55:29;4.97;;;4.10;;
3939;SDS011;1984;48.312;9.244;2023-12-29T08:57:56;5.97;;;4.60;;
3939;SDS011;1984;48.312;9.244;2023-12-29T09:00:22;4.50;;;4.10;;
3939;SDS011;1984;48.312;9.244;2023-12-29T09:02:47;6.33;;;5.03;;
3939;SDS011;1984;48.312;9.244;2023-12-29T09:05:13;8.87;;;4.53;;
3939;SDS011;1984;48.312;9.244;2023-12-29T09:07:39;4.50;;;3.67;;
3939;SDS011;1984;48.312;9.244;2023-12-29T09:10:04;6.97;;;4.50;;
3939;SDS011;1984;48.312;9.244;2023-12-29T09:12:36;5.33;;;3.97;;
3939;SDS011;1984;48.312;9.244;2023-12-29T09:15:03;4.83;;;3.83;;
3939;SDS011;1984;48.312;9.244;2023-12-29T09:17:29;6.07;;;3.90;;
3939;SDS011;1984;48.312;9.244;2023-12-29T09:19:55;5.63;;;3.33;;
3939;SDS011;1984;48.312;9.244;2023-12-29T09:22:20;3.90;;;2.93;;
3939;SDS011;1984;48.312;9.244;2023-12-29T09:24:46;3.57;;;3.13;;
3939;SDS011;1984;48.312;9.244;2023-12-29T09:27:11;6.43;;;3.57;;
3939;SDS011;1984;48.312;9.244;2023-12-29T09:29:38;3.33;;;2.87;;
3939;SDS011;1984;48.312;9.244;2023-12-29T09:32:04;5.80;;;3.13;;
3939;SDS011;1984;48.312;9.244;2023-12-29T09:34:29;2.90;;;2.70;;
3939;SDS011;1984;48.312;9.244;2023-12-29T09:36:55;2.70;;;2.50;;
3939;SDS011;1984;48.312;9.244;2023-12-29T09:39:20;3.23;;;2.80;;
3939;SDS011;1984;48.312;9.244;2023-12-29T09:41:46;4.77;;;3.40;;
3939;SDS011;1984;48.312;9.244;2023-12-29T09:44:16;4.13;;;3.50;;
3939;SDS011;1984;48.312;9.244;2023-12-29T09:46:44;4.60;;;3.87;;
3939;SDS011;1984;48.312;9.244;2023-12-29T09:49:14;5.33;;;3.50;;
3939;SDS011;1984;48.312;9.244;2023-12-29T09:51:43;3.63;;;3.33;;
3939;SDS011;1984;48.312;9.244;2023-12-29T09:54:09;6.50;;;4.00;;
3939;SDS011;1984;48.312;9.244;2023-12-29T09:56:36;8.43;;;3.73;;
3939;SDS011;1984;48.312;9.244;2023-12-29T09:59:03;6.60;;;3.90;;
3939;SDS011;1984;48.312;9.244;2023-12-29T10:01:29;7.00;;;4.30;;
3939;SDS011;1984;48.312;9.244;2023-12-29T10:03:56;5.13;;;3.53;;
3939;SDS011;1984;48.312;9.244;2023-12-29T10:06:25;3.77;;;3.37;;
3939;SDS011;1984;48.312;9.244;2023-12-29T10:08:52;3.73;;;3.33;;
3939;SDS011;1984;48.312;9.244;2023-12-29T10:11:21;6.00;;;2.73;;
3939;SDS011;1984;48.312;9.244;2023-12-29T10:13:49;3.57;;;3.27;;
3939;SDS011;1984;48.312;9.244;2023-12-29T10:16:24;3.90;;;3.43;;
3939;SDS011;1984;48.312;9.244;2023-12-29T10:21:52;3.70;;;3.37;;
3939;SDS011;1984;48.312;9.244;2023-12-29T10:24:29;4.63;;;2.90;;
3939;SDS011;1984;48.312;9.244;2023-12-29T10:26:55;2.90;;;2.60;;
3939;SDS011;1984;48.312;9.244;2023-12-29T10:29:21;3.17;;;2.70;;
3939;SDS011;1984;48.312;9.244;2023-12-29T10:31:46;3.30;;;3.00;;
3939;SDS011;1984;48.312;9.244;2023-12-29T10:34:22;2.70;;;2.50;;
3939;SDS011;1984;48.312;9.244;2023-12-29T10:36:56;4.37;;;2.90;;
3939;SDS011;1984;48.312;9.244;2023-12-29T10:39:26;2.97;;;2.73;;
3939;SDS011;1984;48.312;9.244;2023-12-29T10:42:02;4.07;;;3.43;;
3939;SDS011;1984;48.312;9.244;2023-12-29T10:44:30;4.90;;;4.13;;
3939;SDS011;1984;48.312;9.244;2023-12-29T10:46:55;4.27;;;3.10;;
3939;SDS011;1984;48.312;9.244;2023-12-29T10:49:21;4.50;;;3.10;;
3939;SDS011;1984;48.312;9.244;2023-12-29T10:51:47;2.63;;;2.30;;
3939;SDS011;1984;48.312;9.244;2023-12-29T10:54:19;3.00;;;2.50;;
3939;SDS011;1984;48.312;9.244;2023-12-29T10:56:59;3.40;;;3.10;;
3939;SDS011;1984;48.312;9.244;2023-12-29T10:59:27;6.10;;;3.30;;
3939;SDS011;1984;48.312;9.244;2023-12-29T11:01:53;3.17;;;2.90;;
3939;SDS011;1984;48.312;9.244;2023-12-29T11:04:21;5.00;;;3.60;;
3939;SDS011;1984;48.312;9.244;2023-12-29T11:06:47;3.30;;;2.90;;
3939;SDS011;1984;48.312;9.244;2023-12-29T11:09:26;3.83;;;3.53;;
3939;SDS011;1984;48.312;9.244;2023-12-29T11:11:54;4.67;;;3.83;;
3939;SDS011;1984;48.312;9.244;2023-12-29T11:14:22;3.57;;;3.23;;
3939;SDS011;1984;48.312;9.244;2023-12-29T11:16:48;7.27;;;4.77;;
3939;SDS011;1984;48.312;9.244;2023-12-29T11:19:16;5.20;;;4.37;;
3939;SDS011;1984;48.312;9.244;2023-12-29T11:21:43;4.07;;;3.57;;
3939;SDS011;1984;48.312;9.244;2023-12-29T11:24:09;5.70;;;3.40;;
3939;SDS011;1984;48.312;9.244;2023-12-29T11:26:35;6.10;;;3.70;;
3939;SDS011;1984;48.312;9.244;2023-12-29T11:29:02;7.43;;;3.70;;
3939;SDS011;1984;48.312;9.244;2023-12-29T11:31:29;5.50;;;4.03;;
3939;SDS011;1984;48.312;9.244;2023-12-29T11:34:00;4.80;;;3.80;;
3939;SDS011;1984;48.312;9.244;2023-12-29T11:36:48;6.30;;;3.90;;
3939;SDS011;1984;48.312;9.244;2023-12-29T11:42:02;5.97;;;3.93;;
3939;SDS011;1984;48.312;9.244;2023-12-29T11:44:31;5.40;;;4.17;;
3939;SDS011;1984;48.312;9.244;2023-12-29T11:46:58;6.47;;;4.37;;
3939;SDS011;1984;48.312;9.244;2023-12-29T11:49:25;6.47;;;4.10;;
3939;SDS011;1984;48.312;9.244;2023-12-29T11:51:50;4.90;;;3.70;;
3939;SDS011;1984;48.312;9.244;2023-12-29T11:54:22;5.63;;;4.40;;
3939;SDS011;1984;48.312;9.244;2023-12-29T11:56:49;6.20;;;4.60;;
3939;SDS011;1984;48.312;9.244;2023-12-29T11:59:19;5.70;;;4.73;;
3939;SDS011;1984;48.312;9.244;2023-12-29T12:01:52;6.43;;;4.60;;
3939;SDS011;1984;48.312;9.244;2023-12-29T12:04:41;4.63;;;4.13;;
3939;SDS011;1984;48.312;9.244;2023-12-29T12:07:09;8.30;;;4.40;;
3939;SDS011;1984;48.312;9.244;2023-12-29T12:09:40;4.80;;;4.13;;
3939;SDS011;1984;48.312;9.244;2023-12-29T12:12:06;4.27;;;3.80;;
3939;SDS011;1984;48.312;9.244;2023-12-29T12:14:44;9.93;;;5.30;;
3939;SDS011;1984;48.312;9.244;2023-12-29T12:17:32;5.13;;;4.17;;
3939;SDS011;1984;48.312;9.244;2023-12-29T12:22:34;5.17;;;3.87;;
3939;SDS011;1984;48.312;9.244;2023-12-29T12:25:00;5.20;;;4.07;;
3939;SDS011;1984;48.312;9.244;2023-12-29T12:27:27;4.80;;;3.30;;
3939;SDS011;1984;48.312;9.244;2023-12-29T12:29:54;4.60;;;3.97;;
3939;SDS011;1984;48.312;9.244;2023-12-29T12:32:22;4.23;;;3.50;;
3939;SDS011;1984;48.312;9.244;2023-12-29T12:34:48;5.60;;;3.73;;
3939;SDS011;1984;48.312;9.244;2023-12-29T12:37:23;4.80;;;4.30;;
3939;SDS011;1984;48.312;9.244;2023-12-29T12:39:50;4.50;;;4.10;;
3939;SDS011;1984;48.312;9.244;2023-12-29T12:42:16;4.37;;;3.97;;
3939;SDS011;1984;48.312;9.244;2023-12-29T12:44:46;5.43;;;3.97;;
3939;SDS011;1984;48.312;9.244;2023-12-29T12:47:32;3.77;;;3.37;;
3939;SDS011;1984;48.312;9.244;2023-12-29T12:50:10;3.47;;;3.17;;
3939;SDS011;1984;48.312;9.244;2023-12-29T12:52:37;4.60;;;3.93;;
3939;SDS011;1984;48.312;9.244;2023-12-29T12:55:03;5.60;;;4.17;;
3939;SDS011;1984;48.312;9.244;2023-12-29T12:57:30;4.27;;;3.87;;
3939;SDS011;1984;48.312;9.244;2023-12-29T12:59:56;3.53;;;3.17;;
3939;SDS011;1984;48.312;9.244;2023-12-29T13:02:24;7.43;;;5.03;;
3939;SDS011;1984;48.312;9.244;2023-12-29T13:04:50;4.03;;;3.63;;
3939;SDS011;1984;48.312;9.244;2023-12-29T13:07:17;6.53;;;4.23;;
3939;SDS011;1984;48.312;9.244;2023-12-29T13:09:46;5.47;;;3.60;;
3939;SDS011;1984;48.312;9.244;2023-12-29T13:12:15;3.80;;;3.50;;
3939;SDS011;1984;48.312;9.244;2023-12-29T13:14:41;3.47;;;3.17;;
3939;SDS011;1984;48.312;9.244;2023-12-29T13:17:11;2.90;;;2.70;;
3939;SDS011;1984;48.312;9.244;2023-12-29T13:19:37;4.20;;;3.80;;
3939;SDS011;1984;48.312;9.244;2023-12-29T13:22:08;7.43;;;4.20;;
3939;SDS011;1984;48.312;9.244;2023-12-29T13:24:35;4.07;;;3.20;;
3939;SDS011;1984;48.312;9.244;2023-12-29T13:27:08;4.47;;;4.00;;
3939;SDS011;1984;48.312;9.244;2023-12-29T13:29:34;6.23;;;4.43;;
3939;SDS011;1984;48.312;9.244;2023-12-29T13:32:03;4.63;;;4.27;;
3939;SDS011;1984;48.312;9.244;2023-12-29T13:43:02;6.47;;;3.77;;
3939;SDS011;1984;48.312;9.244;2023-12-29T13:45:29;4.30;;;3.80;;
3939;SDS011;1984;48.312;9.244;2023-12-29T13:47:55;7.13;;;4.37;;
3939;SDS011;1984;48.312;9.244;2023-12-29T13:50:21;5.93;;;4.07;;
3939;SDS011;1984;48.312;9.244;2023-12-29T13:52:47;4.50;;;3.40;;
3939;SDS011;1984;48.312;9.244;2023-12-29T13:55:20;3.40;;;3.10;;
3939;SDS011;1984;48.312;9.244;2023-12-29T13:57:50;2.77;;;2.53;;
3939;SDS011;1984;48.312;9.244;2023-12-29T14:00:17;2.60;;;2.50;;
3939;SDS011;1984;48.312;9.244;2023-12-29T14:02:48;4.10;;;3.20;;
3939;SDS011;1984;48.312;9.244;2023-12-29T14:05:23;3.90;;;3.30;;
3939;SDS011;1984;48.312;9.244;2023-12-29T14:07:59;2.73;;;2.53;;
3939;SDS011;1984;48.312;9.244;2023-12-29T14:10:32;2.80;;;2.60;;
3939;SDS011;1984;48.312;9.244;2023-12-29T14:13:09;2.97;;;2.70;;
3939;SDS011;1984;48.312;9.244;2023-12-29T14:15:39;2.77;;;2.47;;
3939;SDS011;1984;48.312;9.244;2023-12-29T14:20:38;1.37;;;1.37;;
3939;SDS011;1984;48.312;9.244;2023-12-29T14:23:06;1.10;;;1.07;;
3939;SDS011;1984;48.312;9.244;2023-12-29T14:25:33;5.50;;;1.70;;
3939;SDS011;1984;48.312;9.244;2023-12-29T14:28:01;3.80;;;3.40;;
3939;SDS011;1984;48.312;9.244;2023-12-29T14:30:27;2.60;;;2.40;;
3939;SDS011;1984;48.312;9.244;2023-12-29T14:32:56;13.37;;;8.67;;
3939;SDS011;1984;48.312;9.244;2023-12-29T14:35:24;4.43;;;3.00;;
3939;SDS011;1984;48.312;9.244;2023-12-29T14:37:50;2.17;;;2.07;;
3939;SDS011;1984;48.312;9.244;2023-12-29T14:40:15;4.50;;;1.90;;
3939;SDS011;1984;48.312;9.244;2023-12-29T14:42:41;2.43;;;1.93;;
3939;SDS011;1984;48.312;9.244;2023-12-29T14:45:07;1.73;;;1.43;;
3939;SDS011;1984;48.312;9.244;2023-12-29T14:47:34;2.73;;;2.10;;
3939;SDS011;1984;48.312;9.244;2023-12-29T14:50:00;1.53;;;1.33;;
3939;SDS011;1984;48.312;9.244;2023-12-29T14:52:26;1.83;;;1.20;;
3939;SDS011;1984;48.312;9.244;2023-12-29T14:54:52;1.40;;;1.30;;
3939;SDS011;1984;48.312;9.244;2023-12-29T14:57:17;1.50;;;1.07;;
3939;SDS011;1984;48.312;9.244;2023-12-29T14:59:43;0.83;;;0.83;;
3939;SDS011;1984;48.312;9.244;2023-12-29T15:02:08;0.83;;;0.80;;
3939;SDS011;1984;48.312;9.244;2023-12-29T15:04:34;2.43;;;2.30;;
3939;SDS011;1984;48.312;9.244;2023-12-29T15:07:00;1.60;;;1.10;;
3939;SDS011;1984;48.312;9.244;2023-12-29T15:09:26;4.83;;;0.90;;
3939;SDS011;1984;48.312;9.244;2023-12-29T15:11:52;1.03;;;1.03;;
3939;SDS011;1984;48.312;9.244;2023-12-29T15:14:19;1.40;;;1.30;;
3939;SDS011;1984;48.312;9.244;2023-12-29T15:16:45;1.10;;;1.10;;
3939;SDS011;1984;48.312;9.244;2023-12-29T15:19:11;1.60;;;1.50;;
3939;SDS011;1984;48.312;9.244;2023-12-29T15:21:37;1.30;;;1.30;;
3939;SDS011;1984;48.312;9.244;2023-12-29T15:24:03;1.60;;;1.50;;
3939;SDS011;1984;48.312;9.244;2023-12-29T15:26:29;1.97;;;1.23;;
3939;SDS011;1984;48.312;9.244;2023-12-29T15:28:55;1.10;;;1.10;;
3939;SDS011;1984;48.312;9.244;2023-12-29T15:31:22;0.90;;;0.90;;
3939;SDS011;1984;48.312;9.244;2023-12-29T15:33:48;1.17;;;1.17;;
3939;SDS011;1984;48.312;9.244;2023-12-29T15:36:14;1.63;;;1.53;;